createdAt,value
2018-02-15T00:00:02.709Z,10.47
2018-02-15T00:02:30.357Z,9.97
2018-02-15T00:04:58.024Z,10.27
2018-02-15T00:07:27.091Z,10.30
2018-02-15T00:09:54.915Z,10.43
2018-02-15T00:12:22.562Z,10.63
2018-02-15T00:14:50.246Z,10.73
2018-02-15T00:17:17.906Z,9.73
2018-02-15T00:19:45.652Z,10.27
2018-02-15T00:22:13.245Z,10.67
2018-02-15T00:24:41.090Z,9.03
2018-02-15T00:27:15.501Z,10.00
2018-02-15T00:29:43.250Z,9.90
2018-02-15T00:32:10.911Z,9.67
2018-02-15T00:34:38.566Z,10.77
2018-02-15T00:37:06.242Z,9.80
2018-02-15T00:39:33.922Z,9.73
2018-02-15T00:42:02.359Z,10.30
2018-02-15T00:44:38.180Z,9.57
2018-02-15T00:47:05.835Z,9.80
2018-02-15T00:49:33.520Z,9.63
2018-02-15T00:52:01.294Z,9.33
2018-02-15T00:54:29.072Z,10.00
2018-02-15T00:56:56.759Z,9.63
2018-02-15T00:59:24.391Z,9.23
2018-02-15T01:01:52.984Z,9.97
2018-02-15T01:04:20.971Z,9.77
2018-02-15T01:06:48.667Z,9.83
2018-02-15T01:09:16.327Z,9.60
2018-02-15T01:11:44.019Z,10.40
2018-02-15T01:14:15.675Z,10.00
2018-02-15T01:16:43.338Z,9.70
2018-02-15T01:19:12.687Z,9.50
2018-02-15T01:21:41.611Z,10.77
2018-02-15T01:24:09.442Z,9.67
2018-02-15T01:26:37.118Z,10.60
2018-02-15T01:29:04.792Z,10.47
2018-02-15T01:31:32.445Z,10.90
2018-02-15T01:34:00.879Z,11.00
2018-02-15T01:36:28.540Z,9.83
2018-02-15T01:38:56.188Z,11.00
2018-02-15T01:41:23.859Z,10.30
2018-02-15T01:43:51.554Z,10.67
2018-02-15T01:46:19.218Z,10.60
2018-02-15T01:48:46.825Z,10.90
2018-02-15T01:51:14.500Z,10.27
2018-02-15T01:53:42.178Z,10.17
2018-02-15T01:56:09.836Z,10.77
2018-02-15T01:58:37.540Z,10.43
2018-02-15T02:01:05.219Z,10.30
2018-02-15T02:03:32.869Z,10.30
2018-02-15T02:06:05.604Z,10.17
2018-02-15T02:08:33.282Z,9.87
2018-02-15T02:11:00.865Z,10.93
2018-02-15T02:13:28.510Z,11.03
2018-02-15T02:15:56.177Z,11.33
2018-02-15T02:18:24.605Z,10.00
2018-02-15T02:20:53.006Z,10.57
2018-02-15T02:23:20.675Z,10.20
2018-02-15T02:25:48.329Z,10.43
2018-02-15T02:28:15.988Z,9.87
2018-02-15T02:30:44.422Z,10.00
2018-02-15T02:33:12.083Z,10.40
2018-02-15T02:35:43.365Z,10.20
2018-02-15T02:38:11.008Z,9.83
2018-02-15T02:40:39.273Z,10.80
2018-02-15T02:43:06.934Z,9.93
2018-02-15T02:45:34.583Z,10.63
2018-02-15T02:48:02.263Z,9.80
2018-02-15T02:50:29.947Z,10.67
2018-02-15T02:52:57.590Z,9.90
2018-02-15T02:55:25.271Z,10.07
2018-02-15T02:57:52.926Z,10.00
2018-02-15T03:00:20.581Z,9.80
2018-02-15T03:02:48.256Z,10.33
2018-02-15T03:05:17.162Z,9.57
2018-02-15T03:07:44.821Z,10.07
2018-02-15T03:10:12.486Z,9.63
2018-02-15T03:12:40.121Z,10.10
2018-02-15T03:15:07.783Z,10.00
2018-02-15T03:17:35.436Z,9.90
2018-02-15T03:20:03.133Z,10.13
2018-02-15T03:22:30.713Z,9.97
2018-02-15T03:24:58.346Z,9.67
2018-02-15T03:27:25.976Z,9.73
2018-02-15T03:29:53.636Z,9.00
2018-02-15T03:32:21.292Z,9.60
2018-02-15T03:34:49.070Z,10.20
2018-02-15T03:37:16.727Z,10.43
2018-02-15T03:39:44.380Z,9.53
2018-02-15T03:42:12.070Z,10.13
2018-02-15T03:44:40.520Z,9.30
2018-02-15T03:47:08.178Z,10.17
2018-02-15T03:49:35.860Z,9.67
2018-02-15T03:52:03.505Z,9.57
2018-02-15T03:54:31.167Z,10.20
2018-02-15T03:56:58.845Z,9.90
2018-02-15T03:59:26.516Z,10.13
2018-02-15T04:01:54.153Z,9.47
2018-02-15T04:04:27.128Z,9.60
2018-02-15T04:06:55.556Z,9.13
2018-02-15T04:09:23.229Z,8.97
2018-02-15T04:11:50.848Z,9.23
2018-02-15T04:14:18.523Z,9.83
2018-02-15T04:16:46.168Z,9.67
2018-02-15T04:19:13.843Z,9.20
2018-02-15T04:21:41.523Z,9.30
2018-02-15T04:24:09.167Z,9.17
2018-02-15T04:26:36.807Z,9.47
2018-02-15T04:29:04.481Z,9.03
2018-02-15T04:31:32.896Z,9.20
2018-02-15T04:34:00.536Z,8.97
2018-02-15T04:36:28.215Z,9.20
2018-02-15T04:38:55.904Z,9.40
2018-02-15T04:41:23.567Z,10.03
2018-02-15T04:43:51.168Z,9.23
2018-02-15T04:46:18.843Z,8.53
2018-02-15T04:48:46.524Z,8.60
2018-02-15T04:51:14.210Z,9.43
2018-02-15T04:53:41.878Z,9.80
2018-02-15T04:56:09.597Z,9.60
2018-02-15T04:58:37.244Z,9.67
2018-02-15T05:01:04.924Z,9.40
2018-02-15T05:03:32.575Z,9.20
2018-02-15T05:06:00.210Z,8.80
2018-02-15T05:08:27.856Z,9.67
2018-02-15T05:10:55.544Z,9.40
2018-02-15T05:13:23.190Z,9.23
2018-02-15T05:15:50.881Z,9.33
2018-02-15T05:18:18.551Z,9.17
2018-02-15T05:20:46.967Z,9.80
2018-02-15T05:23:14.633Z,8.63
2018-02-15T05:25:42.479Z,9.23
2018-02-15T05:28:10.123Z,9.70
2018-02-15T05:30:38.552Z,9.10
2018-02-15T05:33:11.997Z,10.07
2018-02-15T05:35:39.680Z,9.87
2018-02-15T05:38:08.015Z,9.80
2018-02-15T05:40:35.660Z,9.60
2018-02-15T05:43:03.339Z,10.13
2018-02-15T05:45:38.999Z,9.77
2018-02-15T05:48:06.655Z,9.00
2018-02-15T05:50:34.350Z,9.33
2018-02-15T05:53:02.022Z,10.13
2018-02-15T05:55:30.431Z,9.97
2018-02-15T05:57:58.097Z,9.40
2018-02-15T06:00:25.760Z,9.20
2018-02-15T06:02:53.447Z,9.27
2018-02-15T06:05:21.093Z,9.93
2018-02-15T06:07:48.760Z,9.20
2018-02-15T06:10:16.429Z,9.67
2018-02-15T06:12:44.078Z,9.93
2018-02-15T06:15:13.794Z,10.00
2018-02-15T06:17:41.454Z,9.90
2018-02-15T06:20:09.126Z,10.37
2018-02-15T06:22:36.795Z,10.57
2018-02-15T06:25:04.453Z,10.50
2018-02-15T06:27:32.142Z,9.43
2018-02-15T06:29:59.809Z,11.07
2018-02-15T06:32:27.488Z,10.00
2018-02-15T06:34:55.908Z,10.83
2018-02-15T06:37:23.597Z,10.83
2018-02-15T06:39:51.283Z,10.80
2018-02-15T06:42:18.940Z,10.77
2018-02-15T06:44:46.653Z,10.43
2018-02-15T06:47:14.316Z,10.10
2018-02-15T06:49:41.960Z,11.63
2018-02-15T06:52:09.660Z,10.73
2018-02-15T06:54:37.330Z,11.07
2018-02-15T06:57:04.975Z,11.33
2018-02-15T06:59:32.616Z,11.03
2018-02-15T07:02:00.283Z,11.00
2018-02-15T07:04:27.928Z,11.17
2018-02-15T07:06:55.586Z,11.50
2018-02-15T07:09:24.021Z,11.27
2018-02-15T07:11:51.627Z,11.03
2018-02-15T07:14:25.354Z,12.37
2018-02-15T07:16:53.000Z,11.53
2018-02-15T07:19:21.371Z,11.03
2018-02-15T07:21:49.027Z,11.50
2018-02-15T07:24:16.704Z,10.50
2018-02-15T07:26:45.120Z,10.97
2018-02-15T07:29:12.787Z,11.80
2018-02-15T07:31:40.428Z,11.03
2018-02-15T07:34:08.060Z,12.07
2018-02-15T07:36:35.744Z,11.43
2018-02-15T07:39:03.468Z,12.10
2018-02-15T07:41:31.108Z,11.40
2018-02-15T07:43:58.783Z,11.73
2018-02-15T07:46:26.442Z,12.07
2018-02-15T07:48:54.124Z,12.63
2018-02-15T07:51:21.843Z,13.20
2018-02-15T07:53:49.617Z,12.17
2018-02-15T07:56:17.260Z,13.33
2018-02-15T07:58:45.735Z,12.93
2018-02-15T08:01:14.218Z,12.90
2018-02-15T08:03:41.880Z,13.47
2018-02-15T08:06:11.653Z,13.50
2018-02-15T08:08:39.287Z,13.47
2018-02-15T08:11:09.614Z,13.13
2018-02-15T08:13:37.302Z,13.53
2018-02-15T08:16:05.001Z,14.23
2018-02-15T08:18:39.082Z,13.27
2018-02-15T08:21:06.759Z,14.17
2018-02-15T08:23:34.592Z,13.83
2018-02-15T08:26:02.612Z,13.80
2018-02-15T08:28:33.584Z,14.77
2018-02-15T08:31:04.528Z,14.57
2018-02-15T08:33:32.451Z,14.83
2018-02-15T08:36:00.058Z,15.93
2018-02-15T08:38:27.719Z,14.40
2018-02-15T08:40:55.389Z,16.70
2018-02-15T08:43:23.286Z,16.37
2018-02-15T08:45:51.986Z,16.27
2018-02-15T08:48:19.891Z,16.53
2018-02-15T08:50:47.599Z,16.17
2018-02-15T08:53:20.304Z,16.17
2018-02-15T08:55:48.313Z,17.87
2018-02-15T08:58:16.755Z,17.57
2018-02-15T09:00:44.400Z,17.70
2018-02-15T09:03:12.040Z,18.57
2018-02-15T09:05:39.686Z,17.37
2018-02-15T09:08:07.318Z,17.13
2018-02-15T09:10:35.009Z,18.00
2018-02-15T09:13:02.670Z,18.77
2018-02-15T09:15:35.678Z,17.83
2018-02-15T09:18:03.326Z,18.53
2018-02-15T09:20:31.024Z,19.00
2018-02-15T09:22:58.697Z,17.50
2018-02-15T09:25:26.354Z,17.40
2018-02-15T09:27:54.024Z,16.97
2018-02-15T09:30:21.699Z,17.63
2018-02-15T09:32:49.371Z,16.97
2018-02-15T09:35:17.021Z,17.60
2018-02-15T09:37:44.694Z,16.97
2018-02-15T09:40:12.312Z,16.77
2018-02-15T09:42:39.981Z,16.33
2018-02-15T09:45:14.359Z,17.10
2018-02-15T09:47:42.794Z,17.43
2018-02-15T09:50:10.482Z,16.73
2018-02-15T09:52:40.076Z,16.60
2018-02-15T09:55:13.207Z,17.17
2018-02-15T09:57:41.170Z,16.97
2018-02-15T10:00:09.603Z,16.80
2018-02-15T10:02:37.192Z,15.80
2018-02-15T10:05:07.904Z,17.33
2018-02-15T10:07:35.566Z,16.13
2018-02-15T10:10:03.263Z,17.00
2018-02-15T10:12:30.935Z,15.33
2018-02-15T10:14:58.598Z,15.77
2018-02-15T10:17:26.296Z,16.07
2018-02-15T10:19:53.970Z,16.13
2018-02-15T10:22:21.655Z,15.83
2018-02-15T10:24:51.933Z,16.43
2018-02-15T10:27:19.573Z,16.07
2018-02-15T10:29:47.246Z,15.97
2018-02-15T10:32:15.690Z,15.40
2018-02-15T10:34:45.391Z,16.13
2018-02-15T10:37:13.058Z,15.77
2018-02-15T10:39:40.719Z,15.90
2018-02-15T10:42:08.367Z,15.17
2018-02-15T10:44:36.058Z,16.40
2018-02-15T10:47:03.743Z,14.57
2018-02-15T10:49:31.472Z,15.30
2018-02-15T10:51:59.154Z,15.07
2018-02-15T10:54:26.791Z,15.20
2018-02-15T10:56:54.445Z,16.00
2018-02-15T10:59:22.100Z,15.67
2018-02-15T11:05:01.017Z,15.23
2018-02-15T11:07:28.625Z,16.50
2018-02-15T11:09:56.340Z,16.83
2018-02-15T11:12:24.000Z,16.93
2018-02-15T11:14:52.619Z,17.20
2018-02-15T11:17:20.284Z,17.90
2018-02-15T11:19:47.948Z,17.07
2018-02-15T11:22:15.594Z,17.30
2018-02-15T11:24:43.268Z,18.83
2018-02-15T11:27:10.883Z,16.37
2018-02-15T11:29:38.557Z,18.20
2018-02-15T11:32:06.223Z,17.20
2018-02-15T11:34:33.860Z,18.23
2018-02-15T11:37:01.550Z,19.20
2018-02-15T11:39:29.119Z,18.67
2018-02-15T11:41:56.785Z,18.87
2018-02-15T11:44:28.271Z,19.33
2018-02-15T11:46:55.903Z,18.43
2018-02-15T11:49:23.561Z,18.07
2018-02-15T11:51:51.219Z,17.83
2018-02-15T11:54:19.640Z,18.10
2018-02-15T11:56:47.303Z,18.60
2018-02-15T11:59:14.988Z,18.00
2018-02-15T12:01:42.630Z,18.87
2018-02-15T12:04:10.232Z,19.53
2018-02-15T12:06:37.844Z,18.67
2018-02-15T12:09:05.476Z,19.07
2018-02-15T12:11:33.137Z,19.53
2018-02-15T12:14:00.796Z,18.63
2018-02-15T12:16:28.743Z,19.33
2018-02-15T12:18:56.485Z,17.83
2018-02-15T12:21:24.157Z,18.33
2018-02-15T12:23:51.803Z,17.50
2018-02-15T12:26:19.470Z,17.13
2018-02-15T12:28:47.110Z,17.70
2018-02-15T12:31:14.740Z,17.73
2018-02-15T12:33:42.420Z,17.60
2018-02-15T12:36:13.621Z,17.80
2018-02-15T12:38:41.277Z,17.23
2018-02-15T12:41:08.915Z,17.47
2018-02-15T12:43:36.588Z,18.27
2018-02-15T12:46:04.242Z,17.37
2018-02-15T12:48:31.914Z,18.47
2018-02-15T12:51:00.341Z,18.13
2018-02-15T12:53:27.981Z,18.53
2018-02-15T12:55:55.654Z,18.63
2018-02-15T12:58:23.320Z,19.33
2018-02-15T13:00:50.996Z,18.57
2018-02-15T13:03:18.682Z,19.07
2018-02-15T13:05:47.301Z,18.23
2018-02-15T13:08:14.936Z,19.67
2018-02-15T13:10:43.343Z,18.40
2018-02-15T13:13:22.746Z,18.03
2018-02-15T13:16:02.301Z,17.23
2018-02-15T13:18:30.656Z,17.90
2018-02-15T13:20:58.303Z,16.53
2018-02-15T13:23:25.972Z,17.53
2018-02-15T13:25:53.814Z,17.83
2018-02-15T13:28:35.345Z,17.20
2018-02-15T13:31:03.028Z,16.63
2018-02-15T13:33:30.691Z,17.63
2018-02-15T13:35:58.357Z,17.27
2018-02-15T13:38:26.031Z,17.80
2018-02-15T13:40:53.663Z,17.73
2018-02-15T13:43:21.307Z,18.27
2018-02-15T13:45:49.059Z,17.00
2018-02-15T13:48:17.432Z,17.90
2018-02-15T13:50:46.549Z,17.10
2018-02-15T13:53:15.107Z,18.80
2018-02-15T13:55:43.959Z,16.53
2018-02-15T13:58:11.616Z,16.73
2018-02-15T14:00:39.271Z,17.03
2018-02-15T14:03:07.686Z,16.67
2018-02-15T14:05:35.338Z,16.27
2018-02-15T14:08:03.037Z,15.70
2018-02-15T14:10:30.613Z,16.70
2018-02-15T14:12:58.291Z,16.13
2018-02-15T14:15:28.088Z,15.73
2018-02-15T14:17:55.690Z,15.87
2018-02-15T14:20:23.352Z,15.63
2018-02-15T14:22:50.992Z,16.40
2018-02-15T14:25:19.438Z,16.73
2018-02-15T14:27:47.030Z,17.33
2018-02-15T14:30:14.690Z,18.00
2018-02-15T14:32:42.341Z,18.93
2018-02-15T14:35:09.970Z,18.47
2018-02-15T14:37:37.656Z,18.30
2018-02-15T14:40:05.316Z,17.67
2018-02-15T14:42:33.000Z,17.97
2018-02-15T14:45:02.790Z,18.07
2018-02-15T14:47:30.443Z,18.17
2018-02-15T14:49:58.108Z,19.03
2018-02-15T14:52:25.773Z,20.00
2018-02-15T14:54:53.382Z,19.47
2018-02-15T14:57:21.741Z,20.10
2018-02-15T14:59:54.952Z,20.33
2018-02-15T15:02:22.672Z,20.57
2018-02-15T15:04:50.248Z,20.70
2018-02-15T15:07:17.864Z,20.83
2018-02-15T15:09:45.514Z,17.30
2018-02-15T15:12:13.182Z,19.37
2018-02-15T15:14:41.608Z,19.47
2018-02-15T15:17:09.284Z,20.57
2018-02-15T15:19:36.932Z,20.07
2018-02-15T15:22:04.531Z,20.50
2018-02-15T15:24:32.146Z,19.40
2018-02-15T15:26:59.739Z,20.50
2018-02-15T15:29:27.321Z,19.97
2018-02-15T15:31:55.025Z,19.87
2018-02-15T15:34:23.929Z,20.83
2018-02-15T15:36:51.529Z,20.97
2018-02-15T15:39:19.210Z,20.73
2018-02-15T15:41:46.857Z,18.63
2018-02-15T15:44:14.511Z,20.20
2018-02-15T15:46:42.176Z,20.90
2018-02-15T15:49:09.825Z,19.67
2018-02-15T15:51:37.500Z,21.40
2018-02-15T15:54:05.123Z,19.37
2018-02-15T15:56:32.754Z,19.60
2018-02-15T15:59:01.225Z,18.80
2018-02-15T16:01:29.758Z,20.40
2018-02-15T16:03:57.446Z,21.27
2018-02-15T16:06:25.736Z,21.43
2018-02-15T16:08:53.397Z,19.10
2018-02-15T16:11:21.119Z,21.13
2018-02-15T16:13:48.772Z,20.97
2018-02-15T16:16:16.438Z,21.10
2018-02-15T16:18:44.108Z,22.03
2018-02-15T16:21:11.783Z,21.10
2018-02-15T16:23:39.449Z,21.50
2018-02-15T16:26:08.215Z,22.10
2018-02-15T16:28:36.143Z,21.10
2018-02-15T16:31:05.005Z,21.10
2018-02-15T16:33:32.856Z,22.07
2018-02-15T16:36:00.488Z,22.80
2018-02-15T16:38:28.148Z,22.53
2018-02-15T16:40:55.927Z,22.50
2018-02-15T16:43:23.604Z,20.30
2018-02-15T16:45:51.267Z,23.87
2018-02-15T16:48:19.721Z,24.00
2018-02-15T16:50:47.382Z,25.23
2018-02-15T16:53:15.865Z,23.10
2018-02-15T16:55:44.780Z,24.47
2018-02-15T16:58:12.444Z,23.30
2018-02-15T17:00:40.819Z,24.17
2018-02-15T17:03:08.478Z,25.43
2018-02-15T17:05:36.192Z,27.60
2018-02-15T17:08:03.868Z,25.53
2018-02-15T17:10:31.549Z,25.67
2018-02-15T17:12:59.199Z,25.07
2018-02-15T17:15:27.020Z,29.13
2018-02-15T17:17:55.345Z,28.17
2018-02-15T17:20:22.989Z,29.30
2018-02-15T17:22:50.994Z,28.63
2018-02-15T17:25:18.641Z,26.43
2018-02-15T17:27:46.343Z,30.13
2018-02-15T17:30:14.103Z,29.37
2018-02-15T17:32:41.761Z,32.17
2018-02-15T17:35:09.690Z,31.63
2018-02-15T17:37:38.724Z,29.37
2018-02-15T17:40:06.345Z,27.17
2018-02-15T17:42:34.177Z,29.77
2018-02-15T17:45:01.920Z,22.43
2018-02-15T17:47:29.781Z,27.33
2018-02-15T17:49:57.469Z,30.77
2018-02-15T17:52:25.161Z,29.83
2018-02-15T17:54:53.022Z,27.20
2018-02-15T17:57:20.875Z,24.30
2018-02-15T17:59:48.976Z,29.77
2018-02-15T18:02:16.645Z,25.30
2018-02-15T18:04:44.303Z,24.33
2018-02-15T18:07:11.967Z,29.93
2018-02-15T18:09:39.650Z,31.23
2018-02-15T18:12:07.319Z,31.67
2018-02-15T18:14:35.946Z,34.13
2018-02-15T18:17:03.609Z,30.10
2018-02-15T18:19:33.199Z,33.20
2018-02-15T18:22:02.685Z,35.30
2018-02-15T18:24:30.325Z,37.57
2018-02-15T18:26:58.817Z,35.43
2018-02-15T18:29:26.601Z,32.37
2018-02-15T18:31:55.015Z,37.10
2018-02-15T18:34:24.289Z,32.03
2018-02-15T18:36:54.046Z,28.00
2018-02-15T18:39:21.709Z,32.03
2018-02-15T18:41:50.311Z,34.60
2018-02-15T18:44:21.316Z,27.83
2018-02-15T18:46:48.990Z,30.33
2018-02-15T18:49:17.415Z,33.03
2018-02-15T18:51:45.291Z,33.23
2018-02-15T18:54:14.207Z,32.13
2018-02-15T18:56:43.377Z,36.43
2018-02-15T18:59:11.864Z,33.80
2018-02-15T19:01:40.713Z,38.27
2018-02-15T19:04:09.319Z,35.27
2018-02-15T19:06:37.571Z,35.73
2018-02-15T19:09:05.189Z,36.60
2018-02-15T19:11:34.083Z,26.23
2018-02-15T19:14:01.727Z,30.50
2018-02-15T19:16:29.882Z,36.03
2018-02-15T19:18:57.755Z,43.37
2018-02-15T19:21:25.435Z,37.83
2018-02-15T19:23:53.380Z,41.17
2018-02-15T19:26:21.773Z,39.13
2018-02-15T19:28:49.438Z,43.50
2018-02-15T19:31:17.123Z,39.57
2018-02-15T19:33:44.788Z,41.50
2018-02-15T19:36:12.704Z,39.37
2018-02-15T19:38:40.377Z,38.27
2018-02-15T19:41:09.265Z,38.90
2018-02-15T19:43:37.096Z,40.33
2018-02-15T19:46:04.896Z,37.30
2018-02-15T19:48:32.553Z,37.47
2018-02-15T19:51:00.257Z,40.10
2018-02-15T19:53:28.518Z,38.17
2018-02-15T19:55:56.803Z,41.77
2018-02-15T19:58:25.498Z,46.47
2018-02-15T20:00:53.241Z,42.07
2018-02-15T20:03:21.617Z,40.00
2018-02-15T20:05:50.116Z,41.47
2018-02-15T20:08:17.928Z,44.93
2018-02-15T20:10:45.645Z,37.97
2018-02-15T20:13:13.495Z,30.93
2018-02-15T20:15:47.232Z,38.57
2018-02-15T20:18:17.448Z,39.53
2018-02-15T20:20:45.138Z,41.07
2018-02-15T20:23:12.778Z,38.73
2018-02-15T20:25:40.471Z,38.30
2018-02-15T20:28:15.643Z,29.70
2018-02-15T20:30:44.959Z,34.03
2018-02-15T20:33:12.981Z,41.63
2018-02-15T20:35:41.152Z,35.10
2018-02-15T20:38:15.264Z,33.13
2018-02-15T20:40:43.309Z,44.47
2018-02-15T20:43:12.616Z,39.77
2018-02-15T20:45:43.363Z,35.63
2018-02-15T20:48:11.658Z,25.47
2018-02-15T20:50:44.827Z,33.00
2018-02-15T20:53:18.996Z,32.60
2018-02-15T20:55:48.303Z,32.40
2018-02-15T20:58:16.391Z,31.47
2018-02-15T21:00:44.055Z,33.53
2018-02-15T21:03:12.385Z,29.73
2018-02-15T21:05:40.844Z,54.67
2018-02-15T21:08:08.708Z,51.23
2018-02-15T21:10:37.186Z,46.20
2018-02-15T21:13:04.794Z,42.67
2018-02-15T21:15:32.692Z,52.87
2018-02-15T21:18:00.377Z,26.83
2018-02-15T21:20:28.197Z,28.23
2018-02-15T21:22:55.912Z,36.83
2018-02-15T21:25:23.772Z,23.63
2018-02-15T21:27:51.439Z,32.53
2018-02-15T21:30:19.098Z,27.70
2018-02-15T21:32:47.136Z,36.23
2018-02-15T21:35:14.816Z,39.47
2018-02-15T21:37:42.440Z,30.07
2018-02-15T21:40:10.485Z,36.10
2018-02-15T21:42:38.416Z,37.07
2018-02-15T21:45:06.182Z,37.83
2018-02-15T21:47:33.842Z,25.47
2018-02-15T21:50:01.523Z,28.73
2018-02-15T21:52:29.501Z,38.97
2018-02-15T21:54:57.457Z,35.43
2018-02-15T21:57:25.155Z,37.27
2018-02-15T21:59:52.831Z,39.57
2018-02-15T22:02:21.303Z,36.37
2018-02-15T22:04:49.744Z,37.17
2018-02-15T22:07:17.425Z,39.43
2018-02-15T22:09:45.092Z,37.70
2018-02-15T22:12:13.034Z,39.73
2018-02-15T22:14:40.714Z,40.47
2018-02-15T22:17:08.622Z,39.03
2018-02-15T22:19:37.094Z,37.87
2018-02-15T22:22:04.885Z,41.63
2018-02-15T22:24:33.495Z,40.00
2018-02-15T22:27:01.161Z,37.83
2018-02-15T22:29:28.796Z,36.17
2018-02-15T22:31:58.050Z,37.33
2018-02-15T22:34:25.716Z,33.90
2018-02-15T22:36:53.391Z,34.03
2018-02-15T22:39:21.041Z,34.53
2018-02-15T22:41:48.705Z,27.97
2018-02-15T22:44:16.498Z,24.67
2018-02-15T22:46:44.221Z,33.60
2018-02-15T22:49:11.897Z,27.93
2018-02-15T22:51:39.553Z,35.17
2018-02-15T22:54:07.840Z,36.33
2018-02-15T22:56:35.506Z,35.67
2018-02-15T22:59:03.397Z,37.67
2018-02-15T23:01:31.843Z,37.30
2018-02-15T23:03:59.678Z,37.60
2018-02-15T23:06:27.404Z,40.57
2018-02-15T23:08:55.107Z,31.63
2018-02-15T23:11:22.749Z,27.67
2018-02-15T23:13:50.470Z,36.97
2018-02-15T23:16:19.171Z,29.13
2018-02-15T23:18:46.959Z,31.77
2018-02-15T23:21:14.631Z,32.23
2018-02-15T23:23:42.481Z,36.80
2018-02-15T23:26:10.146Z,33.20
2018-02-15T23:28:37.871Z,33.67
2018-02-15T23:31:05.549Z,32.20
2018-02-15T23:33:33.223Z,24.50
2018-02-15T23:36:01.764Z,25.60
2018-02-15T23:38:29.441Z,34.27
2018-02-15T23:40:57.087Z,36.17
2018-02-15T23:43:24.768Z,34.43
2018-02-15T23:45:52.526Z,31.27
2018-02-15T23:48:20.155Z,35.20
2018-02-15T23:50:47.816Z,34.37
2018-02-15T23:53:15.480Z,34.93
2018-02-15T23:55:43.130Z,46.17
2018-02-15T23:58:10.797Z,40.40
